^^
Station Historical Data
Daily Summary for January 3, 2018 Units:  Metric    English   Both
« Previous Day
Next Day »
Daily Weekly Monthly Yearly Custom
  High: Low: Average:
Temperature: -17.8 °C 22.3 °C 27.1 °C
Dew Point: -17.8 °C -4.6 °C -1.7 °C
Humidity: Humidity% 12% 15%
Wind Speed: 0km/h -1609.1km/h -23.8km/h
Wind Gust: 0km/h - -
Wind- -
Pressure: 0 hPa 1020.5 hPa -
Precipitation: 0 mm    
Historical Graphs
 
 
Tabular Data for January 3, 2018
Time Temperature Dew Point Pressure Wind Wind Speed Wind Gust Humidity Rainfall Rate (Hourly) solar Conditions
-17.8 °C -17.8 °C 0 hPa Calm     Humidity% 0 mm SoftwareType W/m2 Conditions
09:01 22.3 °C -2.4 °C 1024.3 hPa North -1609.1 km/h -1607.7 km/h 19% 0 mm meteobridge W/m2
09:07 22.6 °C -2.2 °C 1024.3 hPa NNE 11.1 km/h 29 km/h 19% 0 mm meteobridge W/m2
09:13 22.7 °C -2.1 °C 1024.6 hPa North 22.7 km/h 27.4 km/h 19% 0 mm meteobridge W/m2
09:20 22.9 °C -2 °C 1024.6 hPa North 17.7 km/h 25.7 km/h 19% 0 mm meteobridge W/m2
09:26 23.1 °C -1.8 °C 1024.6 hPa NNE 17.7 km/h 29 km/h 19% 0 mm meteobridge W/m2
09:32 23.1 °C -1.8 °C 1024.6 hPa North 17.7 km/h 29 km/h 19% 0 mm meteobridge W/m2
09:38 23.4 °C -2.3 °C 1024.6 hPa North 24.1 km/h 24.1 km/h 18% 0 mm meteobridge W/m2
09:44 23.4 °C -1.5 °C 1024.9 hPa NNE 16.3 km/h 27.4 km/h 19% 0 mm meteobridge W/m2
09:58 24.1 °C -1.7 °C 1024.9 hPa NNE 28.8 km/h 29 km/h 18% 0 mm meteobridge W/m2
10:04 24.2 °C -1.6 °C 1024.9 hPa North 19.5 km/h 29 km/h 18% 0 mm meteobridge W/m2
10:10 24.3 °C -2.3 °C 1024.9 hPa NE 19.5 km/h 25.7 km/h 17% 0 mm meteobridge W/m2
10:16 24.5 °C -2.2 °C 1025.3 hPa NNE 22.7 km/h 29 km/h 17% 0 mm meteobridge W/m2
10:22 24.3 °C -1.5 °C 1024.9 hPa North 17.7 km/h 20.9 km/h 18% 0 mm meteobridge W/m2
10:29 24.6 °C -2.1 °C 1024.9 hPa North 19.5 km/h 27.4 km/h 17% 0 mm meteobridge W/m2
10:35 24.7 °C -1.2 °C 1024.9 hPa North 30.6 km/h 32.2 km/h 18% 0 mm meteobridge W/m2
10:41 24.8 °C -1.9 °C 1024.9 hPa NE 4.7 km/h 27.4 km/h 17% 0 mm meteobridge W/m2
10:47 25.1 °C -1.7 °C 1024.9 hPa NE 17.7 km/h 25.7 km/h 17% 0 mm meteobridge W/m2
10:53 25.2 °C -1.6 °C 1024.9 hPa NNE 17.7 km/h 32.2 km/h 17% 0 mm meteobridge W/m2
10:59 25 °C -1.8 °C 1024.9 hPa NE 25.9 km/h 33.8 km/h 17% 0 mm meteobridge W/m2
11:05 25.4 °C -1.4 °C 1024.9 hPa NNW 13 km/h 25.7 km/h 17% 0 mm meteobridge W/m2
11:11 25.5 °C -1.3 °C 1024.9 hPa North 20.9 km/h 33.8 km/h 17% 0 mm meteobridge W/m2
11:17 25.3 °C -1.5 °C 1024.9 hPa North 9.7 km/h 25.7 km/h 17% 0 mm meteobridge W/m2
11:23 25.4 °C -1.4 °C 1024.9 hPa North 4.7 km/h 22.5 km/h 17% 0 mm meteobridge W/m2
11:29 25.6 °C -1.3 °C 1024.9 hPa NNE 13 km/h 24.1 km/h 17% 0 mm meteobridge W/m2
11:35 25.9 °C -1 °C 1024.9 hPa NNE 7.9 km/h 14.5 km/h 17% 0 mm meteobridge W/m2
11:42 25.9 °C -1 °C 1024.6 hPa NE 14.3 km/h 24.1 km/h 17% 0 mm meteobridge W/m2
11:48 25.9 °C -1.8 °C 1024.6 hPa NNW 7.9 km/h 27.4 km/h 16% 0 mm meteobridge W/m2
11:54 26 °C -1.8 °C 1024.6 hPa NE 7.9 km/h 14.5 km/h 16% 0 mm meteobridge W/m2
12:00 26.2 °C -0.8 °C 1024.6 hPa NNW 7.9 km/h 30.6 km/h 17% 0 mm meteobridge W/m2
12:08 26.8 °C -1.1 °C 1024.3 hPa ENE 1.4 km/h 11.3 km/h 16% 0 mm meteobridge W/m2
12:31 26.7 °C -1.2 °C 1023.9 hPa North 25.9 km/h 30.6 km/h 16% 0 mm meteobridge W/m2
12:37 26.9 °C -1 °C 1023.9 hPa NNE 7.9 km/h 17.7 km/h 16% 0 mm meteobridge W/m2
12:43 27.4 °C -0.6 °C 1023.9 hPa NNW 24.1 km/h 30.6 km/h 16% 0 mm meteobridge W/m2
12:49 27.1 °C -0.9 °C 1023.9 hPa East 6.4 km/h 14.5 km/h 16% 0 mm meteobridge W/m2
12:55 26.9 °C -1 °C 1023.9 hPa North 16.3 km/h 20.9 km/h 16% 0 mm meteobridge W/m2
13:01 27.6 °C -0.5 °C 1023.9 hPa NW 7.9 km/h 24.1 km/h 16% 0 mm meteobridge W/m2
13:07 27.9 °C -0.2 °C 1023.9 hPa NNW 4.7 km/h 17.7 km/h 16% 0 mm meteobridge W/m2
13:13 27.7 °C -0.4 °C 1023.9 hPa North 4.7 km/h 16.1 km/h 16% 0 mm meteobridge W/m2
13:26 28.4 °C 0.2 °C 1023.6 hPa NNE 16.3 km/h 27.4 km/h 16% 0 mm meteobridge W/m2
13:38 28.4 °C 0.2 °C 1023.2 hPa NNE 3.2 km/h 9.7 km/h 16% 0 mm meteobridge W/m2
13:40 28.6 °C 0.3 °C 1023.2 hPa NNE 11.1 km/h 19.3 km/h 16% 0 mm meteobridge W/m2
13:46 28.5 °C 0.2 °C 1023.2 hPa North 20.9 km/h 27.4 km/h 16% 0 mm meteobridge W/m2
13:50 28.7 °C 0.4 °C 1022.9 hPa SE 4.7 km/h 6.4 km/h 16% 0 mm meteobridge W/m2
13:56 28.8 °C 0.5 °C 1023.2 hPa NW 17.7 km/h 33.8 km/h 16% 0 mm meteobridge W/m2
14:03 28.4 °C 0.2 °C 1022.9 hPa WNW 9.7 km/h 37 km/h 16% 0 mm meteobridge W/m2
14:09 28.2 °C 0 °C 1022.9 hPa NNW 9.7 km/h 22.5 km/h 16% 0 mm meteobridge W/m2
14:15 28.6 °C 0.3 °C 1022.9 hPa SE 4.7 km/h 9.7 km/h 16% 0 mm meteobridge W/m2
14:21 29.6 °C 0.2 °C 1022.6 hPa West 9.7 km/h 9.7 km/h 15% 0 mm meteobridge W/m2
14:27 29.8 °C -0.6 °C 1022.6 hPa North 9.7 km/h 22.5 km/h 14% 0 mm meteobridge W/m2
14:33 29.1 °C -0.2 °C 1022.6 hPa NW 7.9 km/h 20.9 km/h 15% 0 mm meteobridge W/m2
14:39 28.9 °C -1.3 °C 1022.6 hPa NW 3.2 km/h 16.1 km/h 14% 0 mm meteobridge W/m2
14:46 28.7 °C -1.4 °C 1022.6 hPa North 7.9 km/h 12.9 km/h 14% 0 mm meteobridge W/m2
14:52 28.8 °C -0.4 °C 1022.2 hPa NE 7.9 km/h 20.9 km/h 15% 0 mm meteobridge W/m2
14:58 29.2 °C -1 °C 1022.2 hPa NNE 3.2 km/h 14.5 km/h 14% 0 mm meteobridge W/m2
15:04 29.4 °C -0.9 °C 1021.9 hPa WSW 4.7 km/h 4.8 km/h 14% 0 mm meteobridge W/m2
15:10 29.9 °C -0.5 °C 1021.9 hPa NNE 9.7 km/h 9.7 km/h 14% 0 mm meteobridge W/m2
15:17 30.2 °C -0.3 °C 1021.6 hPa West 1.4 km/h 14.5 km/h 14% 0 mm meteobridge W/m2
15:25 29.9 °C -0.5 °C 1021.6 hPa NNW 14.3 km/h 16.1 km/h 14% 0 mm meteobridge W/m2
15:31 29.7 °C -0.6 °C 1021.6 hPa NNE 9.7 km/h 17.7 km/h 14% 0 mm meteobridge W/m2
15:37 29.2 °C -1 °C 1021.6 hPa West 6.4 km/h 25.7 km/h 14% 0 mm meteobridge W/m2
15:43 29.3 °C -1 °C 1021.6 hPa North 16.3 km/h 20.9 km/h 14% 0 mm meteobridge W/m2
15:49 29.3 °C -1 °C 1021.6 hPa NNW 3.2 km/h 8 km/h 14% 0 mm meteobridge W/m2
15:55 29.6 °C -0.7 °C 1021.2 hPa SSW 7.9 km/h 8 km/h 14% 0 mm meteobridge W/m2
16:01 29.8 °C -1.6 °C 1021.2 hPa Calm   9.7 km/h 13% 0 mm meteobridge W/m2
16:07 30.2 °C -1.3 °C 1021.2 hPa NNE 7.9 km/h 11.3 km/h 13% 0 mm meteobridge W/m2
16:13 29.9 °C -1.5 °C 1021.2 hPa South 7.9 km/h 9.7 km/h 13% 0 mm meteobridge W/m2
16:26 29.8 °C -1.6 °C 1021.2 hPa North 13 km/h 13 km/h 13% 0 mm meteobridge W/m2
16:32 30.2 °C -1.3 °C 1021.2 hPa Calm   9.7 km/h 13% 0 mm meteobridge W/m2
16:38 29.8 °C -1.6 °C 1020.9 hPa North 16.3 km/h 25.7 km/h 13% 0 mm meteobridge W/m2
16:40 29.6 °C -1.7 °C 1020.9 hPa NNW 6.4 km/h 27.4 km/h 13% 0 mm meteobridge W/m2
16:52 29.2 °C -2 °C 1020.9 hPa North 4.7 km/h 17.7 km/h 13% 0 mm meteobridge W/m2
16:58 29.4 °C -1.9 °C 1020.9 hPa SSW 6.4 km/h 20.9 km/h 13% 0 mm meteobridge W/m2
17:04 30 °C -1.4 °C 1020.9 hPa South 7.9 km/h 17.7 km/h 13% 0 mm meteobridge W/m2
17:10 29.7 °C -1.7 °C 1020.9 hPa NNE 4.7 km/h 16.1 km/h 13% 0 mm meteobridge W/m2
17:17 29.5 °C -1.8 °C 1020.5 hPa North 3.2 km/h 4.8 km/h 13% 0 mm meteobridge W/m2
17:23 29.4 °C -1.9 °C 1020.5 hPa ENE 4.7 km/h 17.7 km/h 13% 0 mm meteobridge W/m2
17:29 30 °C -1.4 °C 1020.9 hPa WNW 1.4 km/h 3.2 km/h 13% 0 mm meteobridge W/m2
17:35 30.6 °C -2 °C 1020.9 hPa NNE 9.7 km/h 17.7 km/h 12% 0 mm meteobridge W/m2
17:41 29.9 °C -2.6 °C 1020.9 hPa ESE 1.4 km/h 11.3 km/h 12% 0 mm meteobridge W/m2
17:45 29.8 °C -2.7 °C 1020.9 hPa West 4.7 km/h 11.3 km/h 12% 0 mm meteobridge W/m2
17:51 29.7 °C -2.7 °C 1020.9 hPa SW 4.7 km/h 19.3 km/h 12% 0 mm meteobridge W/m2
17:57 29.6 °C -1.7 °C 1020.9 hPa ENE 7.9 km/h 19.3 km/h 13% 0 mm meteobridge W/m2
18:03 29.1 °C -2.1 °C 1020.9 hPa North 6.4 km/h 9.7 km/h 13% 0 mm meteobridge W/m2
18:09 29.1 °C -2.1 °C 1020.9 hPa SSE 4.7 km/h 6.4 km/h 13% 0 mm meteobridge W/m2
18:22 29.6 °C -1.7 °C 1020.9 hPa WSW 3.2 km/h 4.8 km/h 13% 0 mm meteobridge W/m2
18:28 29.2 °C -3.1 °C 1020.9 hPa North 7.9 km/h 19.3 km/h 12% 0 mm meteobridge W/m2
18:34 29.2 °C -3.1 °C 1020.9 hPa WNW 7.9 km/h 9.7 km/h 12% 0 mm meteobridge W/m2
18:40 28.8 °C -3.4 °C 1020.9 hPa NNW 17.7 km/h 27.4 km/h 12% 0 mm meteobridge W/m2
18:58 28.4 °C -3.7 °C 1021.2 hPa WSW 3.2 km/h 8 km/h 12% 0 mm meteobridge W/m2
19:26 27.6 °C -4.4 °C 1021.6 hPa SSE 9.7 km/h 9.7 km/h 12% 0 mm meteobridge W/m2
19:33 27.3 °C -4.6 °C 1021.9 hPa NNW 3.2 km/h 3.2 km/h 12% 0 mm meteobridge W/m2
19:39 27.3 °C -4.6 °C 1021.9 hPa NNW 3.2 km/h -1607.7 km/h 12% 0 mm meteobridge W/m2
19:45 27.3 °C -4.6 °C 1021.9 hPa NNW 3.2 km/h -1607.7 km/h 12% 0 mm meteobridge W/m2
19:54 27.3 °C -4.6 °C 1022.2 hPa North -1609.1 km/h -1607.7 km/h 12% 0 mm meteobridge W/m2
Regenstein, Windhoek, Namibia
Compliments of Weather Underground - 2.5 mb